createdAt,value
2022-08-09T04:03:00.896Z,16.80
2022-08-09T04:05:28.260Z,16.80
2022-08-09T04:07:57.188Z,16.78
2022-08-09T04:10:29.180Z,16.73
2022-08-09T04:12:58.170Z,16.75
2022-08-09T04:15:38.899Z,16.73
2022-08-09T04:18:16.739Z,16.72
2022-08-09T04:20:48.266Z,16.69
2022-08-09T04:23:16.725Z,16.65
2022-08-09T04:25:44.891Z,16.66
2022-08-09T04:28:31.403Z,16.65
2022-08-09T04:31:01.203Z,16.65
2022-08-09T04:33:34.353Z,16.65
2022-08-09T04:36:21.231Z,16.60
2022-08-09T04:38:50.033Z,16.61
2022-08-09T04:41:16.568Z,16.60
2022-08-09T04:43:53.883Z,16.59
2022-08-09T04:46:38.217Z,16.58
2022-08-09T04:49:17.442Z,16.57
2022-08-09T04:51:56.911Z,16.55
2022-08-09T04:54:23.752Z,16.52
2022-08-09T04:56:50.183Z,16.52
2022-08-09T04:59:16.641Z,16.51
2022-08-09T05:01:47.605Z,16.51
2022-08-09T05:04:14.350Z,16.49
2022-08-09T05:06:40.913Z,16.50
2022-08-09T05:09:10.682Z,16.49
2022-08-09T05:11:38.899Z,16.49
2022-08-09T05:14:06.687Z,16.48
2022-08-09T05:16:58.387Z,16.49
2022-08-09T05:19:24.382Z,16.47
2022-08-09T05:21:55.990Z,16.48
2022-08-09T05:24:24.447Z,16.48
2022-08-09T05:26:51.722Z,16.51
2022-08-09T05:29:21.506Z,16.50
2022-08-09T05:31:57.256Z,16.54
2022-08-09T05:34:30.700Z,16.54
2022-08-09T05:37:06.489Z,16.53
2022-08-09T05:39:43.116Z,16.59
2022-08-09T05:42:17.854Z,16.58
2022-08-09T05:44:50.932Z,16.64
2022-08-09T05:47:19.710Z,16.67
2022-08-09T05:50:30.683Z,16.74
2022-08-09T05:52:36.147Z,16.79
2022-08-09T05:55:07.333Z,16.83
2022-08-09T05:57:51.006Z,16.83
2022-08-09T06:00:22.253Z,16.93
2022-08-09T06:02:49.278Z,16.98
2022-08-09T06:05:20.895Z,17.02
2022-08-09T06:08:08.149Z,17.07
2022-08-09T06:10:38.710Z,17.11
2022-08-09T06:13:18.614Z,17.16
2022-08-09T06:15:47.124Z,17.22
2022-08-09T06:18:15.843Z,17.26
2022-08-09T06:20:43.484Z,17.30
2022-08-09T06:23:21.063Z,17.30
2022-08-09T06:25:50.087Z,17.38
2022-08-09T06:28:22.115Z,17.40
2022-08-09T06:30:54.042Z,17.44
2022-08-09T06:33:39.689Z,17.49
2022-08-09T06:36:07.489Z,17.52
2022-08-09T06:38:37.434Z,17.58
2022-08-09T06:41:08.594Z,17.63
2022-08-09T06:43:46.384Z,17.67
2022-08-09T06:46:39.203Z,17.68
2022-08-09T06:49:00.385Z,17.75
2022-08-09T06:51:28.181Z,17.75
2022-08-09T06:53:55.405Z,17.83
2022-08-09T06:56:21.889Z,17.88
2022-08-09T07:00:50.660Z,17.93
2022-08-09T07:01:57.795Z,17.95
2022-08-09T07:04:25.067Z,18.02
2022-08-09T07:06:59.940Z,18.08
2022-08-09T07:09:55.637Z,18.09
2022-08-09T07:12:18.211Z,18.15
2022-08-09T07:14:51.197Z,18.18
2022-08-09T07:17:20.080Z,18.20
2022-08-09T07:19:48.053Z,18.28
2022-08-09T07:22:18.231Z,18.31
2022-08-09T07:24:49.312Z,18.32
2022-08-09T07:27:26.843Z,18.39
2022-08-09T07:30:02.191Z,18.43
2022-08-09T07:32:33.696Z,18.49
2022-08-09T07:35:10.357Z,18.51
2022-08-09T07:37:42.798Z,18.56
2022-08-09T07:40:16.690Z,18.62
2022-08-09T07:42:56.913Z,18.65
2022-08-09T07:45:39.372Z,18.70
2022-08-09T07:48:28.316Z,18.75
2022-08-09T07:51:03.274Z,18.78
2022-08-09T07:54:04.483Z,18.81
2022-08-09T07:56:30.886Z,18.86
2022-08-09T07:58:59.263Z,18.90
2022-08-09T08:01:34.099Z,18.94
2022-08-09T08:04:02.338Z,19.00
2022-08-09T08:06:32.005Z,19.04
2022-08-09T08:09:04.912Z,19.07
2022-08-09T08:12:23.870Z,19.12
2022-08-09T08:14:21.095Z,19.14
2022-08-09T08:17:01.091Z,19.19
2022-08-09T08:19:34.695Z,19.23
2022-08-09T08:22:02.035Z,19.26
2022-08-09T08:24:34.318Z,19.33
2022-08-09T08:27:17.053Z,19.36
2022-08-09T08:29:48.473Z,19.45
2022-08-09T08:32:18.941Z,19.51
2022-08-09T08:34:55.515Z,19.53
2022-08-09T08:37:26.607Z,19.59
2022-08-09T08:40:09.440Z,19.58
2022-08-09T08:42:37.857Z,19.62
2022-08-09T08:45:13.231Z,19.71
2022-08-09T08:47:42.846Z,19.77
2022-08-09T08:50:17.978Z,19.81
2022-08-09T08:52:58.782Z,19.79
2022-08-09T08:55:27.448Z,19.82
2022-08-09T08:57:56.800Z,19.86
2022-08-09T09:00:29.935Z,19.96
2022-08-09T09:03:12.166Z,19.98
2022-08-09T09:06:03.011Z,20.04
2022-08-09T09:08:41.070Z,20.04
2022-08-09T09:11:13.621Z,20.11
2022-08-09T09:13:55.491Z,20.11
2022-08-09T09:16:30.981Z,20.20
2022-08-09T09:22:03.803Z,20.29
2022-08-09T09:24:34.632Z,20.35
2022-08-09T09:27:02.701Z,20.37
2022-08-09T09:30:09.372Z,20.42
2022-08-09T09:32:34.616Z,20.48
2022-08-09T09:35:09.336Z,20.51
2022-08-09T09:37:40.641Z,20.60
2022-08-09T09:40:08.728Z,20.64
2022-08-09T09:42:36.220Z,20.68
2022-08-09T09:45:08.334Z,20.75
2022-08-09T09:47:47.927Z,20.76
2022-08-09T09:50:39.674Z,20.82
2022-08-09T09:53:57.288Z,20.86
2022-08-09T09:56:31.223Z,20.91
2022-08-09T09:58:58.777Z,20.98
2022-08-09T10:01:31.013Z,21.00
2022-08-09T10:04:30.231Z,21.07
2022-08-09T10:06:57.238Z,21.09
2022-08-09T10:09:24.414Z,21.19
2022-08-09T10:12:27.755Z,21.18
2022-08-09T10:14:48.778Z,21.27
2022-08-09T10:17:54.898Z,21.30
2022-08-09T10:20:32.469Z,21.35
2022-08-09T10:23:21.240Z,21.45
2022-08-09T10:26:06.650Z,21.53
2022-08-09T10:28:40.051Z,21.57
2022-08-09T10:32:27.619Z,21.60
2022-08-09T10:34:11.424Z,21.60
2022-08-09T10:36:45.410Z,21.68
2022-08-09T10:39:16.233Z,21.77
2022-08-09T10:41:47.669Z,21.78
2022-08-09T10:44:18.617Z,21.85
2022-08-09T10:47:20.389Z,21.85
2022-08-09T10:50:52.513Z,21.89
2022-08-09T10:53:54.514Z,21.92
2022-08-09T10:56:25.455Z,22.00
2022-08-09T10:58:54.034Z,22.02
2022-08-09T11:03:13.337Z,22.04
2022-08-09T11:04:31.210Z,22.09
2022-08-09T11:06:59.899Z,22.10
2022-08-09T11:09:41.070Z,22.11
2022-08-09T11:12:30.097Z,22.17
2022-08-09T11:15:24.002Z,22.18
2022-08-09T11:18:02.700Z,22.26
2022-08-09T11:20:47.458Z,22.24
2022-08-09T11:23:16.767Z,22.28
2022-08-09T11:25:50.925Z,22.32
2022-08-09T11:28:56.562Z,22.30
2022-08-09T11:31:43.355Z,22.43
2022-08-09T11:34:39.027Z,22.45
2022-08-09T11:37:08.127Z,22.49
2022-08-09T11:40:08.185Z,22.49
2022-08-09T11:42:48.666Z,22.55
2022-08-09T11:45:42.886Z,22.58
2022-08-09T11:48:25.225Z,22.61
2022-08-09T11:51:38.080Z,22.67
2022-08-09T11:54:01.744Z,22.70
2022-08-09T11:56:42.786Z,22.71
2022-08-09T11:59:30.228Z,22.75
2022-08-09T12:02:17.427Z,22.84
2022-08-09T12:04:58.238Z,22.85
2022-08-09T12:07:41.726Z,22.87
2022-08-09T12:10:14.321Z,22.93
2022-08-09T12:12:57.267Z,22.91
2022-08-09T12:15:50.323Z,22.94
2022-08-09T12:18:25.945Z,22.94
2022-08-09T12:21:00.405Z,23.00
2022-08-09T12:23:56.464Z,22.99
2022-08-09T12:26:25.669Z,23.04
2022-08-09T12:29:15.496Z,23.02
2022-08-09T12:32:02.762Z,23.00
2022-08-09T12:34:41.224Z,23.07
2022-08-09T12:37:21.733Z,23.13
2022-08-09T12:40:11.568Z,23.13
2022-08-09T12:42:44.342Z,23.15
2022-08-09T12:45:33.670Z,23.24
2022-08-09T12:47:59.082Z,23.27
2022-08-09T12:50:25.920Z,23.33
2022-08-09T12:53:17.891Z,23.37
2022-08-09T12:56:15.560Z,23.38
2022-08-09T12:58:28.048Z,23.41
2022-08-09T13:00:56.350Z,23.41
2022-08-09T13:03:58.367Z,23.47
2022-08-09T13:06:34.410Z,23.45
2022-08-09T13:09:06.368Z,23.51
2022-08-09T13:11:42.643Z,23.54
2022-08-09T13:14:40.762Z,23.58
2022-08-09T13:17:25.680Z,23.63
2022-08-09T13:20:16.047Z,23.64
2022-08-09T13:23:05.449Z,23.63
2022-08-09T13:25:42.112Z,23.65
2022-08-09T13:28:24.605Z,23.64
2022-08-09T13:32:18.119Z,23.65
2022-08-09T13:33:56.712Z,23.65
2022-08-09T13:36:42.127Z,23.65
2022-08-09T13:41:17.566Z,23.66
2022-08-09T13:42:05.525Z,23.66
2022-08-09T13:44:40.315Z,23.69
2022-08-09T13:47:28.789Z,23.73
2022-08-09T13:50:01.321Z,23.70
2022-08-09T13:52:30.098Z,23.78
2022-08-09T13:55:00.512Z,23.79
2022-08-09T13:57:36.459Z,23.80
2022-08-09T14:00:15.841Z,23.82
2022-08-09T14:03:17.046Z,23.83
2022-08-09T14:05:59.218Z,23.85
2022-08-09T14:08:21.603Z,23.88
2022-08-09T14:10:51.890Z,23.90
2022-08-09T14:13:28.190Z,23.93
2022-08-09T14:16:17.392Z,23.98
2022-08-09T14:18:49.663Z,23.82
2022-08-09T14:21:22.553Z,23.90
2022-08-09T14:23:56.501Z,23.92
2022-08-09T14:26:31.710Z,23.94
2022-08-09T14:29:01.444Z,23.92
2022-08-09T14:31:35.570Z,23.93
2022-08-09T14:34:04.255Z,23.99
2022-08-09T14:36:35.343Z,24.01
2022-08-09T14:39:09.455Z,24.02
2022-08-09T14:41:41.809Z,24.07
2022-08-09T14:44:11.183Z,24.08
2022-08-09T14:46:54.700Z,24.09
2022-08-09T14:49:25.523Z,24.08
2022-08-09T14:51:58.329Z,24.12
2022-08-09T14:54:28.283Z,24.12
2022-08-09T14:56:58.758Z,24.14
2022-08-09T14:59:28.466Z,24.21
2022-08-09T15:01:55.135Z,24.24
2022-08-09T15:04:23.533Z,24.23
2022-08-09T15:06:51.406Z,24.21
2022-08-09T15:10:03.490Z,24.24
2022-08-09T15:12:08.206Z,24.27
2022-08-09T15:14:38.272Z,24.25
2022-08-09T15:17:09.206Z,24.27
2022-08-09T15:19:36.667Z,24.30
2022-08-09T15:22:03.684Z,24.33
2022-08-09T15:24:30.263Z,24.38
2022-08-09T15:26:57.616Z,24.41
2022-08-09T15:30:59.435Z,24.40
2022-08-09T15:32:28.876Z,24.46
2022-08-09T15:35:00.826Z,24.43
2022-08-09T15:38:10.679Z,24.48
2022-08-09T15:40:32.187Z,24.46
2022-08-09T15:43:00.183Z,24.48
2022-08-09T15:45:29.840Z,24.48
2022-08-09T15:48:06.457Z,24.49
2022-08-09T15:50:43.879Z,24.54
2022-08-09T15:53:18.734Z,24.56
2022-08-09T15:56:21.045Z,24.62
2022-08-09T15:58:44.477Z,24.65
2022-08-09T16:01:13.405Z,24.66
2022-08-09T16:03:41.665Z,24.69
2022-08-09T16:06:29.341Z,24.69
2022-08-09T16:08:56.635Z,24.71
2022-08-09T16:11:28.654Z,24.73
2022-08-09T16:14:04.597Z,24.82
2022-08-09T16:16:34.648Z,24.84
2022-08-09T16:19:04.452Z,24.83
2022-08-09T16:21:31.745Z,24.84
2022-08-09T16:24:02.319Z,24.84
2022-08-09T16:26:34.555Z,24.84
2022-08-09T16:29:20.836Z,24.85
2022-08-09T16:32:18.418Z,24.85
2022-08-09T16:34:55.383Z,24.87
2022-08-09T16:37:55.867Z,24.93
2022-08-09T16:40:13.004Z,24.97
2022-08-09T16:42:45.067Z,25.03
2022-08-09T16:45:13.795Z,25.05
2022-08-09T16:48:41.447Z,25.13
2022-08-09T16:50:33.750Z,25.19
2022-08-09T16:53:02.070Z,25.18
2022-08-09T16:55:31.510Z,25.31
2022-08-09T16:58:16.805Z,25.35
2022-08-09T17:00:44.022Z,25.40
2022-08-09T17:03:21.856Z,25.44
2022-08-09T17:06:06.813Z,25.54
2022-08-09T17:08:46.438Z,25.59
2022-08-09T17:11:24.621Z,25.58
2022-08-09T17:14:06.851Z,25.64
2022-08-09T17:16:38.025Z,25.63
2022-08-09T17:19:05.295Z,25.65
2022-08-09T17:21:32.023Z,25.67
2022-08-09T17:24:28.424Z,25.70
2022-08-09T17:26:47.642Z,25.72
2022-08-09T17:29:20.641Z,25.72
2022-08-09T17:31:49.140Z,25.70
2022-08-09T17:35:01.130Z,25.73
2022-08-09T17:37:02.505Z,25.78
2022-08-09T17:39:53.222Z,25.76
2022-08-09T17:42:41.907Z,25.75
2022-08-09T17:45:06.579Z,25.74
2022-08-09T17:47:49.386Z,25.74
2022-08-09T17:50:36.388Z,25.77
2022-08-09T17:53:19.380Z,25.81
2022-08-09T17:55:51.081Z,25.82
2022-08-09T17:58:21.877Z,25.84
2022-08-09T18:00:50.869Z,25.87
2022-08-09T18:03:21.614Z,25.84
2022-08-09T18:05:52.797Z,25.85
2022-08-09T18:08:22.053Z,25.83
2022-08-09T18:11:02.331Z,25.82
2022-08-09T18:13:43.094Z,25.82
2022-08-09T18:16:30.456Z,25.79
2022-08-09T18:19:03.566Z,25.79
2022-08-09T18:21:31.827Z,25.77
2022-08-09T18:24:14.463Z,25.76
2022-08-09T18:26:46.789Z,25.72
2022-08-09T18:30:36.327Z,25.72
2022-08-09T18:32:03.943Z,25.66
2022-08-09T18:34:34.836Z,25.62
2022-08-09T18:37:05.708Z,25.61
2022-08-09T18:39:39.624Z,25.59
2022-08-09T18:42:09.052Z,25.53
2022-08-09T18:44:35.993Z,25.47
2022-08-09T18:47:08.470Z,25.46
2022-08-09T18:49:46.170Z,25.39
2022-08-09T18:52:15.764Z,25.39
2022-08-09T18:54:52.877Z,25.33
2022-08-09T18:57:21.938Z,25.29
2022-08-09T18:59:54.456Z,25.28
2022-08-09T19:02:32.350Z,25.25
2022-08-09T19:05:03.884Z,25.23
2022-08-09T19:07:59.046Z,25.11
2022-08-09T19:10:28.907Z,25.11
2022-08-09T19:13:23.525Z,25.05
2022-08-09T19:15:55.770Z,25.01
2022-08-09T19:18:32.974Z,24.95
2022-08-09T19:21:01.504Z,24.87
2022-08-09T19:24:37.090Z,24.86
2022-08-09T19:26:16.032Z,24.82
2022-08-09T19:28:48.609Z,24.77
2022-08-09T19:31:16.761Z,24.74
2022-08-09T19:33:43.756Z,24.70
2022-08-09T19:36:11.793Z,24.65
2022-08-09T19:38:40.082Z,24.64
2022-08-09T19:41:06.816Z,24.56
2022-08-09T19:44:00.885Z,24.53
2022-08-09T19:46:34.897Z,24.47
2022-08-09T19:50:07.188Z,24.45
2022-08-09T19:51:55.771Z,24.43
2022-08-09T19:54:29.151Z,24.36
2022-08-09T19:56:57.034Z,24.35
2022-08-09T19:59:57.677Z,24.32
2022-08-09T20:02:18.326Z,24.28
2022-08-09T20:04:59.870Z,24.25
2022-08-09T20:07:33.772Z,24.23
2022-08-09T20:10:17.061Z,24.19
2022-08-09T20:12:45.931Z,24.17
2022-08-09T20:16:34.501Z,24.11
2022-08-09T20:17:59.725Z,24.06
2022-08-09T20:20:27.123Z,24.02
2022-08-09T20:22:56.335Z,24.00
2022-08-09T20:25:23.413Z,23.95
2022-08-09T20:27:49.887Z,23.91
2022-08-09T20:30:17.990Z,23.87
2022-08-09T20:32:48.679Z,23.82
2022-08-09T20:35:20.285Z,23.77
2022-08-09T20:38:22.515Z,23.75
2022-08-09T20:40:33.712Z,23.72
2022-08-09T20:43:19.098Z,23.69
2022-08-09T20:46:00.946Z,23.63
2022-08-09T20:48:36.975Z,23.58
2022-08-09T20:51:05.689Z,23.55
2022-08-09T20:53:37.139Z,23.52
2022-08-09T20:56:21.152Z,23.45
2022-08-09T20:58:54.653Z,23.46
2022-08-09T21:01:35.174Z,23.39
2022-08-09T21:05:55.006Z,23.37
2022-08-09T21:07:11.982Z,23.29
2022-08-09T21:09:55.307Z,23.24
2022-08-09T21:15:12.990Z,23.17
2022-08-09T21:18:23.760Z,23.15
2022-08-09T21:20:30.397Z,23.08
2022-08-09T21:22:57.457Z,23.09
2022-08-09T21:25:44.235Z,23.03
2022-08-09T21:28:33.485Z,23.01
2022-08-09T21:31:16.386Z,22.95
2022-08-09T21:33:51.309Z,22.93
2022-08-09T21:36:25.754Z,22.88
2022-08-09T21:38:57.447Z,22.85
2022-08-09T21:42:05.400Z,22.83
2022-08-09T21:44:32.960Z,22.79
2022-08-09T21:47:07.715Z,22.76
2022-08-09T21:49:39.197Z,22.73
2022-08-09T21:52:08.297Z,22.71
2022-08-09T21:54:49.548Z,22.69
2022-08-09T21:57:37.417Z,22.62
2022-08-09T22:00:10.482Z,22.61
